EZY27A LIBD-LDSP
Flight info
| Callsign | EZY27A |
|---|---|
| Flight time | 0h 30m |
| Altitude | 24000 |
| Route | BANAV DCT RILIM |
| Aircraft | A320/M-SDE3FGHIRWY/LB1 |
Departure
| Time | 2026-05-09 10:36 |
|---|---|
| Airport | Bari Karol Wojtyła International Airport (LIBD) |
Arrival
| Time | 2026-05-09 11:06 |
|---|---|
| Airport | Split Saint Jerome Airport (LDSP) |
| Time | Latitude | Longitude | Altitude | Speed | Heading |
|---|---|---|---|---|---|
| 2026-05-09 10:35 | 41.22247 | 16.73796 | 7974 ft | 271 kts | 33° |
| 2026-05-09 10:36 | 41.25514 | 16.76529 | 9780 ft | 283 kts | 31° |
| 2026-05-09 10:36 | 41.29080 | 16.79372 | 10834 ft | 320 kts | 30° |
| 2026-05-09 10:36 | 41.33094 | 16.82525 | 11844 ft | 351 kts | 29° |
| 2026-05-09 10:36 | 41.37369 | 16.85880 | 13414 ft | 361 kts | 27° |
| 2026-05-09 10:37 | 41.42104 | 16.88343 | 14827 ft | 370 kts | 17° |
| 2026-05-09 10:37 | 41.46988 | 16.90662 | 16283 ft | 376 kts | 17° |
| 2026-05-09 10:37 | 41.50779 | 16.92492 | 17369 ft | 381 kts | 17° |
| 2026-05-09 10:37 | 41.53287 | 16.93693 | 18057 ft | 385 kts | 16° |
| 2026-05-09 10:38 | 41.55847 | 16.94792 | 18691 ft | 388 kts | 14° |
| 2026-05-09 10:38 | 41.58453 | 16.95795 | 19296 ft | 391 kts | 13° |
| 2026-05-09 10:38 | 41.61092 | 16.96749 | 19908 ft | 394 kts | 12° |
| 2026-05-09 10:38 | 41.63180 | 16.97494 | 20378 ft | 397 kts | 12° |
| 2026-05-09 10:41 | 41.65287 | 16.98250 | 20892 ft | 399 kts | 12° |
| 2026-05-09 10:41 | 41.67978 | 16.99237 | 21449 ft | 404 kts | 12° |
| 2026-05-09 10:41 | 41.70707 | 17.00194 | 22020 ft | 406 kts | 8° |
| 2026-05-09 10:41 | 41.73514 | 17.00629 | 22593 ft | 407 kts | 358° |
| 2026-05-09 10:42 | 41.76338 | 17.00409 | 23178 ft | 407 kts | 348° |
| 2026-05-09 10:42 | 41.79107 | 16.99826 | 23737 ft | 410 kts | 348° |
| 2026-05-09 10:42 | 41.81934 | 16.99230 | 24009 ft | 412 kts | 348° |
| 2026-05-09 10:42 | 41.84780 | 16.98639 | 24085 ft | 415 kts | 348° |
| 2026-05-09 10:43 | 41.87658 | 16.98041 | 24103 ft | 420 kts | 348° |
| 2026-05-09 10:43 | 41.90551 | 16.97440 | 24102 ft | 421 kts | 348° |
| 2026-05-09 10:43 | 41.93449 | 16.96837 | 24098 ft | 422 kts | 348° |
| 2026-05-09 10:43 | 41.96355 | 16.96231 | 24098 ft | 422 kts | 348° |
| 2026-05-09 10:44 | 41.99264 | 16.95625 | 24099 ft | 423 kts | 348° |
| 2026-05-09 10:44 | 42.02174 | 16.95020 | 24099 ft | 423 kts | 348° |
| 2026-05-09 10:44 | 42.05084 | 16.94413 | 24098 ft | 424 kts | 348° |
| 2026-05-09 10:44 | 42.07977 | 16.93804 | 24098 ft | 425 kts | 348° |
| 2026-05-09 10:45 | 42.10877 | 16.93057 | 24095 ft | 422 kts | 340° |
| 2026-05-09 10:46 | 42.21694 | 16.87054 | 24085 ft | 421 kts | 334° |
| 2026-05-09 10:46 | 42.24401 | 16.85502 | 24084 ft | 422 kts | 334° |
| 2026-05-09 10:46 | 42.27107 | 16.83951 | 24087 ft | 422 kts | 335° |
| 2026-05-09 10:46 | 42.29817 | 16.82399 | 24062 ft | 422 kts | 335° |
| 2026-05-09 10:47 | 42.32506 | 16.80858 | 23532 ft | 418 kts | 335° |
| 2026-05-09 10:47 | 42.35141 | 16.79348 | 22804 ft | 415 kts | 335° |
| 2026-05-09 10:47 | 42.37823 | 16.77812 | 22137 ft | 412 kts | 335° |
| 2026-05-09 10:47 | 42.40417 | 16.76326 | 21523 ft | 408 kts | 335° |
| 2026-05-09 10:48 | 42.43057 | 16.74813 | 20918 ft | 405 kts | 335° |
| 2026-05-09 10:48 | 42.45611 | 16.73349 | 20353 ft | 402 kts | 335° |
| 2026-05-09 10:48 | 42.48172 | 16.71881 | 19792 ft | 399 kts | 336° |
| 2026-05-09 10:48 | 42.50723 | 16.70416 | 19257 ft | 396 kts | 336° |
| 2026-05-09 10:49 | 42.53252 | 16.68960 | 18716 ft | 393 kts | 336° |
| 2026-05-09 10:49 | 42.55772 | 16.67508 | 18160 ft | 391 kts | 336° |
| 2026-05-09 10:49 | 42.58267 | 16.66064 | 17568 ft | 388 kts | 336° |
| 2026-05-09 10:49 | 42.60742 | 16.64628 | 16981 ft | 385 kts | 336° |
| 2026-05-09 10:50 | 42.63204 | 16.63200 | 16433 ft | 383 kts | 337° |
| 2026-05-09 10:50 | 42.65648 | 16.61782 | 15870 ft | 380 kts | 337° |
| 2026-05-09 10:50 | 42.68070 | 16.60375 | 15328 ft | 378 kts | 337° |
| 2026-05-09 10:50 | 42.70449 | 16.58994 | 14788 ft | 375 kts | 337° |
| 2026-05-09 10:51 | 42.72846 | 16.57606 | 14257 ft | 373 kts | 337° |
| 2026-05-09 10:51 | 42.75233 | 16.56225 | 13726 ft | 371 kts | 337° |
| 2026-05-09 10:51 | 42.77601 | 16.54853 | 13140 ft | 368 kts | 338° |
| 2026-05-09 10:51 | 42.79947 | 16.53489 | 12604 ft | 364 kts | 338° |
| 2026-05-09 10:52 | 42.82268 | 16.52137 | 12053 ft | 360 kts | 338° |
| 2026-05-09 10:52 | 42.84562 | 16.50799 | 11512 ft | 357 kts | 338° |
| 2026-05-09 10:52 | 42.86835 | 16.49472 | 10970 ft | 353 kts | 338° |
| 2026-05-09 10:52 | 42.89084 | 16.48162 | 10427 ft | 350 kts | 339° |
| 2026-05-09 10:53 | 42.91253 | 16.46898 | 10258 ft | 335 kts | 339° |
| 2026-05-09 10:53 | 42.93355 | 16.45671 | 10138 ft | 321 kts | 339° |
| 2026-05-09 10:53 | 42.95366 | 16.44491 | 10017 ft | 308 kts | 339° |
| 2026-05-09 10:53 | 42.97292 | 16.43357 | 9882 ft | 296 kts | 339° |
| 2026-05-09 10:54 | 42.99166 | 16.42259 | 9581 ft | 290 kts | 339° |
| 2026-05-09 10:54 | 43.01017 | 16.41177 | 9186 ft | 288 kts | 339° |
| 2026-05-09 10:54 | 43.02861 | 16.40101 | 8785 ft | 287 kts | 339° |
| 2026-05-09 10:54 | 43.04696 | 16.39031 | 8366 ft | 286 kts | 339° |
| 2026-05-09 10:55 | 43.06521 | 16.37964 | 7956 ft | 284 kts | 339° |
| 2026-05-09 10:55 | 43.07723 | 16.37259 | 7685 ft | 283 kts | 338° |
| 2026-05-09 10:55 | 43.10117 | 16.35851 | 7139 ft | 282 kts | 338° |
| 2026-05-09 10:55 | 43.11914 | 16.34792 | 6736 ft | 280 kts | 338° |
| 2026-05-09 10:56 | 43.13102 | 16.34090 | 6452 ft | 280 kts | 338° |
| 2026-05-09 10:56 | 43.14890 | 16.33035 | 6010 ft | 279 kts | 338° |
| 2026-05-09 10:56 | 43.16668 | 16.31986 | 5567 ft | 278 kts | 337° |
| 2026-05-09 10:56 | 43.18444 | 16.30939 | 5176 ft | 278 kts | 337° |
| 2026-05-09 10:57 | 43.20217 | 16.29890 | 4736 ft | 277 kts | 336° |
| 2026-05-09 10:57 | 43.21983 | 16.28845 | 4303 ft | 275 kts | 336° |
| 2026-05-09 10:57 | 43.23729 | 16.27813 | 4031 ft | 268 kts | 336° |
| 2026-05-09 10:57 | 43.25386 | 16.26832 | 4005 ft | 250 kts | 336° |
| 2026-05-09 10:58 | 43.26927 | 16.25919 | 4010 ft | 232 kts | 336° |
| 2026-05-09 10:58 | 43.28351 | 16.25078 | 4009 ft | 222 kts | 336° |
| 2026-05-09 10:58 | 43.29764 | 16.24244 | 4014 ft | 221 kts | 336° |
| 2026-05-09 10:58 | 43.31173 | 16.23410 | 4012 ft | 221 kts | 336° |
| 2026-05-09 10:59 | 43.32639 | 16.22803 | 4009 ft | 221 kts | 352° |
| 2026-05-09 10:59 | 43.34169 | 16.22818 | 4008 ft | 220 kts | 10° |
| 2026-05-09 10:59 | 43.35621 | 16.23452 | 4004 ft | 218 kts | 28° |
| 2026-05-09 10:59 | 43.36857 | 16.24611 | 3821 ft | 212 kts | 44° |
| 2026-05-09 11:00 | 43.37933 | 16.25941 | 3692 ft | 205 kts | 43° |
| 2026-05-09 11:00 | 43.39005 | 16.27247 | 3587 ft | 203 kts | 43° |
| 2026-05-09 11:00 | 43.40018 | 16.28480 | 3480 ft | 188 kts | 42° |
| 2026-05-09 11:00 | 43.40949 | 16.29610 | 3202 ft | 172 kts | 42° |
| 2026-05-09 11:01 | 43.41838 | 16.30689 | 3002 ft | 170 kts | 42° |
| 2026-05-09 11:01 | 43.42727 | 16.31768 | 3016 ft | 172 kts | 42° |
| 2026-05-09 11:01 | 43.43626 | 16.32859 | 3007 ft | 172 kts | 42° |
| 2026-05-09 11:01 | 43.44526 | 16.33950 | 3001 ft | 172 kts | 42° |
| 2026-05-09 11:02 | 43.45425 | 16.35046 | 2825 ft | 172 kts | 42° |
| 2026-05-09 11:02 | 43.46319 | 16.36135 | 2578 ft | 171 kts | 41° |
| 2026-05-09 11:02 | 43.47204 | 16.37212 | 2337 ft | 169 kts | 41° |
| 2026-05-09 11:02 | 43.48084 | 16.38284 | 2101 ft | 168 kts | 41° |
| 2026-05-09 11:03 | 43.48920 | 16.39292 | 1858 ft | 154 kts | 39° |
| 2026-05-09 11:03 | 43.49865 | 16.39799 | 1628 ft | 143 kts | 2° |
| 2026-05-09 11:03 | 43.50848 | 16.39721 | 1378 ft | 141 kts | 1° |
| 2026-05-09 11:03 | 43.51814 | 16.39912 | 1140 ft | 140 kts | 8° |
| 2026-05-09 11:04 | 43.52782 | 16.40114 | 905 ft | 140 kts | 1° |
| 2026-05-09 11:04 | 43.53699 | 16.39794 | 696 ft | 134 kts | 323° |
| 2026-05-09 11:04 | 43.54420 | 16.38994 | 629 ft | 133 kts | 314° |
| 2026-05-09 11:04 | 43.55041 | 16.38066 | 619 ft | 130 kts | 295° |
| 2026-05-09 11:05 | 43.55343 | 16.36898 | 700 ft | 129 kts | 282° |
| 2026-05-09 11:05 | 43.55562 | 16.35708 | 787 ft | 131 kts | 282° |
| 2026-05-09 11:05 | 43.55737 | 16.34481 | 692 ft | 129 kts | 270° |
| 2026-05-09 11:05 | 43.55616 | 16.33284 | 563 ft | 125 kts | 251° |
| 2026-05-09 11:06 | 43.55221 | 16.32218 | 318 ft | 125 kts | 235° |
| 2026-05-09 11:06 | 43.54711 | 16.31260 | 125 ft | 124 kts | 233° |
| 2026-05-09 11:06 | 43.54222 | 16.30385 | 63 ft | 90 kts | 232° |
| 2026-05-09 11:06 | 43.53917 | 16.29836 | 82 ft | 47 kts | 232° |
| 2026-05-09 11:07 | 43.53779 | 16.29587 | 87 ft | 22 kts | 232° |
| 2026-05-09 11:07 | 43.53707 | 16.29515 | 85 ft | 4 kts | 133° |
| 2026-05-09 11:07 | 43.53684 | 16.29566 | 84 ft | 9 kts | 130° |
| 2026-05-09 11:07 | 43.53677 | 16.29577 | 87 ft | 0 kts | 131° |
| 2026-05-09 11:08 | 43.53645 | 16.29571 | 84 ft | 8 kts | 171° |
| 2026-05-09 11:08 | 43.53594 | 16.29614 | 85 ft | 8 kts | 143° |
| 2026-05-09 11:08 | 43.53584 | 16.29673 | 83 ft | 7 kts | 74° |
| 2026-05-09 11:09 | 43.53582 | 16.29694 | 82 ft | 0 kts | 98° |
| 2026-05-09 11:09 | 43.53582 | 16.29698 | 82 ft | 0 kts | 98° |